Time;durP1;ratioP1;P1;durP2;ratioP2;P2;SDS_P1;SDS_P2;PMS_P1;PMS_P2;Temp;Humidity;BMP_temperature;BMP_pressure;BME280_temperature;BME280_humidity;BME280_pressure;Samples;Min_cycle;Max_cycle;Signal;HPM_P1;HPM_P2
2022/01/19 00:01:56;;;;;;;5.40;2.10;;;4.80;99.90;;;5.33;100.00;99692.88;5056249;28;20504;-91
2022/01/19 00:04:27;;;;;;;2.20;2.00;;;4.70;99.90;;;5.33;100.00;99692.88;5063578;28;20560;-91
2022/01/19 00:06:58;;;;;;;2.27;2.07;;;4.60;99.90;;;5.34;100.00;99698.88;5057669;28;20469;-90
2022/01/19 00:09:28;;;;;;;4.13;2.50;;;4.70;99.90;;;5.37;100.00;99694.31;5056438;28;20518;-90
2022/01/19 00:11:58;;;;;;;2.60;2.40;;;4.70;99.90;;;5.38;100.00;99682.97;5057536;28;20470;-90
2022/01/19 00:14:30;;;;;;;3.10;2.40;;;4.70;99.90;;;5.38;100.00;99672.59;5055264;28;20496;-91
2022/01/19 00:17:02;;;;;;;3.00;2.70;;;4.80;99.90;;;5.41;100.00;99668.97;5055780;28;20564;-90
2022/01/19 00:19:32;;;;;;;3.20;2.90;;;4.80;99.90;;;5.42;100.00;99652.44;5056566;28;20953;-90
2022/01/19 00:22:03;;;;;;;4.43;2.27;;;4.80;99.90;;;5.37;100.00;99637.25;5054140;28;20465;-89
2022/01/19 00:24:33;;;;;;;4.77;2.20;;;4.80;99.90;;;5.30;100.00;99625.69;5050422;28;20477;-90
2022/01/19 00:27:04;;;;;;;3.80;2.57;;;4.90;99.90;;;5.23;100.00;99623.66;5056033;28;20460;-90
2022/01/19 00:29:34;;;;;;;5.73;2.40;;;4.80;99.90;;;5.13;100.00;99615.72;5058817;28;20553;-90
2022/01/19 00:32:06;;;;;;;5.23;2.30;;;4.70;99.90;;;5.15;100.00;99610.41;5053667;28;20464;-90
2022/01/19 00:34:36;;;;;;;3.00;2.47;;;4.50;99.90;;;5.20;100.00;99603.97;5056816;28;20507;-91
2022/01/19 00:37:08;;;;;;;3.40;2.50;;;4.80;99.90;;;5.21;100.00;99604.78;5055805;28;20500;-91
2022/01/19 00:39:39;;;;;;;3.60;2.40;;;4.80;99.90;;;5.22;100.00;99612.44;5057192;28;20490;-90
2022/01/19 00:42:10;;;;;;;3.47;2.57;;;4.70;99.90;;;5.24;100.00;99610.56;5056850;28;20572;-90
2022/01/19 00:44:40;;;;;;;3.00;2.57;;;4.70;99.90;;;5.27;100.00;99625.06;5055599;28;20469;-91
2022/01/19 00:47:10;;;;;;;5.70;2.80;;;4.70;99.90;;;5.27;100.00;99631.09;5056543;28;20814;-91
2022/01/19 00:49:42;;;;;;;2.77;2.50;;;4.70;99.90;;;5.27;100.00;99628.50;5056961;28;20461;-90
2022/01/19 00:52:14;;;;;;;2.70;2.50;;;4.70;99.90;;;5.28;100.00;99630.13;5056571;28;20510;-90
2022/01/19 00:54:44;;;;;;;2.80;2.27;;;4.80;99.90;;;5.27;100.00;99625.91;5058478;28;20465;-90
2022/01/19 00:57:14;;;;;;;4.40;2.57;;;4.80;99.90;;;5.20;100.00;99624.72;5057254;28;20496;-89
2022/01/19 00:59:45;;;;;;;3.83;2.60;;;4.80;99.90;;;5.18;100.00;99616.19;5056256;28;20586;-90
2022/01/19 01:02:14;;;;;;;3.30;2.20;;;4.80;99.90;;;5.16;100.00;99612.91;5056208;28;20461;-90
2022/01/19 01:04:44;;;;;;;3.17;2.27;;;4.60;99.90;;;5.20;100.00;99610.91;5055836;28;20468;-90
2022/01/19 01:07:17;;;;;;;3.03;2.57;;;4.60;99.90;;;5.21;100.00;99607.38;5056408;28;20518;-90
2022/01/19 01:09:48;;;;;;;4.20;2.30;;;4.50;99.90;;;5.20;100.00;99603.13;5056282;28;20548;-91
2022/01/19 01:12:27;;;;;;;4.50;2.53;;;4.50;99.90;;;5.22;100.00;99604.66;5060235;28;20809;-90
2022/01/19 01:20:32;;;;;;;5.30;2.80;;;4.60;99.90;;;5.28;100.00;99591.22;5057702;28;20483;-90
2022/01/19 01:23:06;;;;;;;4.00;2.50;;;4.70;99.90;;;5.28;100.00;99573.09;5065301;28;20467;-91
2022/01/19 01:25:35;;;;;;;3.00;2.63;;;4.70;99.90;;;5.27;100.00;99562.84;5060748;28;20475;-90
2022/01/19 01:28:07;;;;;;;4.43;2.83;;;4.70;99.90;;;5.26;100.00;99553.41;5058165;28;20524;-90
2022/01/19 01:30:37;;;;;;;8.80;3.13;;;4.70;99.90;;;5.23;100.00;99548.44;5061187;28;20453;-90
2022/01/19 01:33:09;;;;;;;3.20;2.90;;;4.60;99.90;;;5.27;100.00;99539.50;5059261;28;20496;-90
2022/01/19 01:35:40;;;;;;;4.10;2.73;;;4.70;99.90;;;5.27;100.00;99527.38;5054183;28;20500;-91
2022/01/19 01:38:12;;;;;;;3.80;3.47;;;4.80;99.90;;;5.20;100.00;99517.56;5053439;28;20496;-90
2022/01/19 01:41:03;;;;;;;3.73;2.93;;;4.80;99.90;;;5.20;100.00;99538.31;5056063;28;20488;-90
2022/01/19 01:43:34;;;;;;;7.13;2.90;;;4.70;99.90;;;5.17;100.00;99541.16;5056696;28;20463;-90
2022/01/19 01:46:11;;;;;;;3.93;3.50;;;4.70;99.90;;;5.18;100.00;99553.97;5056029;28;20461;-91
2022/01/19 01:48:46;;;;;;;4.00;3.37;;;4.70;99.90;;;5.16;100.00;99555.88;5055120;28;20537;-90
2022/01/19 01:54:07;;;;;;;3.73;3.37;;;4.70;99.90;;;5.07;100.00;99562.56;5056309;28;20484;-90
2022/01/19 01:56:38;;;;;;;5.40;3.43;;;4.60;99.90;;;5.07;100.00;99548.75;5057424;28;20549;-90
2022/01/19 01:59:09;;;;;;;4.00;3.43;;;4.60;99.90;;;5.06;100.00;99535.00;5050772;28;20463;-90
2022/01/19 02:01:40;;;;;;;3.67;3.30;;;4.70;99.90;;;5.03;100.00;99531.81;5056573;28;20468;-90
2022/01/19 02:04:12;;;;;;;8.70;3.60;;;4.60;99.90;;;5.02;100.00;99525.81;5056872;28;20472;-90
2022/01/19 02:07:05;;;;;;;3.80;3.03;;;4.60;99.90;;;5.05;100.00;99511.78;5057773;28;20488;-91
2022/01/19 02:09:39;;;;;;;5.50;3.17;;;4.60;99.90;;;5.07;100.00;99499.50;5054887;28;20472;-89
2022/01/19 02:23:27;;;;;;;4.40;4.00;;;4.60;99.90;;;5.07;100.00;99456.28;5058292;28;20500;-90
2022/01/19 02:26:00;;;;;;;8.10;4.80;;;4.60;99.90;;;5.08;100.00;99454.50;5059689;28;20461;-90
2022/01/19 02:31:48;;;;;;;4.57;4.17;;;4.60;99.90;;;5.07;100.00;99439.91;5059772;28;20471;-91
2022/01/19 02:40:11;;;;;;;5.20;3.87;;;4.60;99.90;;;4.93;100.00;99393.47;5058909;28;20578;-90
2022/01/19 02:42:56;;;;;;;5.70;4.40;;;4.50;99.90;;;4.88;100.00;99396.44;5059224;28;20472;-89
2022/01/19 02:51:01;;;;;;;7.37;4.57;;;4.40;99.90;;;4.92;100.00;99374.53;5060610;28;20464;-90
2022/01/19 02:53:35;;;;;;;6.07;4.93;;;4.30;99.90;;;4.92;100.00;99371.94;5060969;28;20539;-90
2022/01/19 02:56:11;;;;;;;5.60;3.90;;;4.30;99.90;;;4.90;100.00;99362.63;5057556;28;20863;-90
2022/01/19 02:58:47;;;;;;;6.33;4.40;;;4.30;99.90;;;4.81;100.00;99352.97;5060306;28;20498;-91
2022/01/19 03:09:43;;;;;;;4.33;3.90;;;4.00;99.90;;;4.72;100.00;99354.50;5057821;28;20542;-90
2022/01/19 03:12:13;;;;;;;4.17;3.73;;;3.90;99.90;;;4.68;100.00;99341.91;5057038;28;20534;-91
2022/01/19 03:14:44;;;;;;;4.10;3.70;;;4.00;99.90;;;4.65;100.00;99347.34;5056505;28;20472;-91
2022/01/19 03:17:15;;;;;;;6.20;4.60;;;3.90;99.90;;;4.60;100.00;99346.84;5058981;28;20492;-90
2022/01/19 03:19:46;;;;;;;3.47;3.17;;;3.90;99.90;;;4.58;100.00;99337.41;5058616;28;20554;-91
2022/01/19 03:22:18;;;;;;;5.70;3.90;;;3.80;99.90;;;4.52;100.00;99337.06;5059745;28;20487;-91
2022/01/19 03:24:51;;;;;;;8.10;4.37;;;3.70;99.90;;;4.46;100.00;99345.31;5056878;28;20512;-90
2022/01/19 03:27:22;;;;;;;5.60;3.40;;;3.70;99.90;;;4.30;100.00;99353.41;5057560;28;20475;-90
2022/01/19 03:29:54;;;;;;;3.13;2.80;;;3.40;99.90;;;4.19;100.00;99368.09;5057342;28;21821;-90
2022/01/19 03:32:24;;;;;;;5.73;3.00;;;3.30;99.90;;;4.16;100.00;99366.56;5057491;28;20468;-90
2022/01/19 03:34:55;;;;;;;3.40;3.10;;;3.30;99.90;;;4.02;100.00;99359.84;5056874;28;20461;-91
2022/01/19 03:37:25;;;;;;;6.10;3.70;;;3.20;99.90;;;4.04;100.00;99359.69;5055920;28;20504;-91
2022/01/19 03:39:56;;;;;;;4.00;3.20;;;3.20;99.90;;;4.09;100.00;99359.38;5059361;28;20471;-90
2022/01/19 03:42:26;;;;;;;4.20;3.27;;;3.20;99.90;;;4.10;100.00;99364.41;5058898;28;20579;-91
2022/01/19 03:44:56;;;;;;;5.60;3.73;;;3.30;99.90;;;4.05;100.00;99353.59;5054659;28;20524;-89
2022/01/19 03:47:28;;;;;;;6.60;3.57;;;3.20;99.90;;;4.11;100.00;99353.13;5058667;28;20471;-91
2022/01/19 03:49:57;;;;;;;4.53;3.73;;;3.30;99.90;;;4.15;100.00;99340.78;5059802;28;20854;-89
2022/01/19 03:52:27;;;;;;;3.30;2.90;;;3.40;99.90;;;4.11;100.00;99327.25;5067919;28;20493;-90
2022/01/19 03:55:02;;;;;;;6.70;3.47;;;3.40;99.90;;;4.12;100.00;99326.31;5079887;28;20478;-92
2022/01/19 03:57:33;;;;;;;3.50;3.20;;;3.40;99.90;;;4.12;100.00;99328.06;5081219;28;20463;-93
2022/01/19 04:00:14;;;;;;;3.57;2.90;;;3.40;99.90;;;4.11;100.00;99339.38;5082108;28;20483;-92
2022/01/19 04:02:51;;;;;;;3.20;2.90;;;3.40;99.90;;;4.05;100.00;99338.06;5077583;28;20520;-92
2022/01/19 04:05:39;;;;;;;5.10;3.17;;;3.30;99.90;;;4.05;100.00;99338.06;5084194;28;20473;-93
2022/01/19 04:08:17;;;;;;;3.50;3.20;;;3.40;99.90;;;4.06;100.00;99331.97;5084655;28;20481;-92
2022/01/19 04:11:08;;;;;;;3.60;2.77;;;3.30;99.90;;;4.07;100.00;99326.66;5076738;28;20516;-92
2022/01/19 04:16:36;;;;;;;8.00;3.13;;;3.30;99.90;;;4.02;100.00;99333.13;5076652;28;20510;-92
2022/01/19 04:19:21;;;;;;;4.53;2.90;;;3.30;99.90;;;4.02;100.00;99335.72;5072018;28;20562;-91
2022/01/19 04:21:55;;;;;;;6.37;2.90;;;3.30;99.90;;;3.98;100.00;99332.53;5072228;28;20521;-92
2022/01/19 04:24:43;;;;;;;4.97;3.20;;;3.20;99.90;;;3.97;100.00;99330.03;5072211;28;20466;-92
2022/01/19 04:27:33;;;;;;;3.87;3.47;;;3.20;99.90;;;3.95;100.00;99319.81;5074333;28;20468;-93
2022/01/19 04:30:13;;;;;;;4.13;3.50;;;3.20;99.90;;;3.90;100.00;99308.16;5080609;28;20502;-91
2022/01/19 05:13:37;;;;;;;10.60;3.80;;;2.50;99.90;;;3.24;100.00;99290.63;4884183;29;20446;-75
2022/01/19 05:16:13;;;;;;;5.83;3.20;;;2.40;99.90;;;3.22;100.00;99297.66;4948400;28;20642;-76
2022/01/19 05:27:32;;;;;;;5.03;3.37;;;2.30;99.90;;;3.09;100.00;99274.44;4980824;28;20557;-80
2022/01/19 06:13:39;;;;;;;7.83;4.23;;;1.90;99.90;;;2.81;100.00;99241.22;5943749;23;21361;-92
2022/01/19 06:25:29;;;;;;;14.27;3.20;;;1.70;99.90;;;2.69;100.00;99226.56;4986930;28;20432;-82
2022/01/19 06:32:15;;;;;;;8.40;4.23;;;1.80;99.90;;;2.76;100.00;99222.63;4998597;28;20470;-78
2022/01/19 06:35:16;;;;;;;6.10;3.43;;;1.90;99.90;;;2.73;100.00;99226.25;5000509;28;20440;-83
2022/01/19 06:37:54;;;;;;;4.70;3.30;;;1.80;99.90;;;2.73;100.00;99215.91;4982310;28;20422;-93
2022/01/19 06:40:27;;;;;;;3.87;3.57;;;2.00;99.90;;;2.62;100.00;99218.44;4971835;28;20582;-88
2022/01/19 06:43:06;;;;;;;6.37;3.70;;;1.70;99.90;;;2.58;100.00;99218.75;4967009;28;20524;-92
2022/01/19 06:49:45;;;;;;;5.60;4.13;;;1.60;99.90;;;2.55;100.00;99206.88;4995023;28;20433;-75
2022/01/19 06:56:43;;;;;;;3.33;3.00;;;1.50;99.90;;;2.50;100.00;99194.28;4992159;28;20444;-76
2022/01/19 07:03:36;;;;;;;12.97;3.77;;;1.70;99.90;;;2.54;100.00;99194.91;5021615;28;20400;-75
2022/01/19 07:10:34;;;;;;;5.70;4.00;;;1.50;99.90;;;2.51;100.00;99193.38;5021373;28;20431;-75
2022/01/19 07:14:12;;;;;;;8.23;4.37;;;1.70;99.90;;;2.58;100.00;99195.50;5021501;28;20428;-76
2022/01/19 07:21:21;;;;;;;6.23;3.80;;;1.60;99.90;;;2.59;100.00;99179.94;4962202;28;20473;-93
2022/01/19 07:24:59;;;;;;;5.70;3.70;;;1.80;99.90;;;2.61;100.00;99172.06;4970758;28;20447;-95
2022/01/19 07:27:55;;;;;;;4.93;4.20;;;1.80;99.90;;;2.60;100.00;99165.28;4951013;28;20457;-92
2022/01/19 07:30:36;;;;;;;6.13;4.50;;;1.80;99.90;;;2.61;100.00;99162.56;4979958;28;20461;-76
2022/01/19 07:59:46;;;;;;;8.67;4.73;;;2.00;99.90;;;2.62;100.00;99135.81;5183305;23;21213;-76
2022/01/19 08:06:29;;;;;;;6.03;4.30;;;2.00;99.90;;;2.70;100.00;99118.03;4981085;28;20444;-87
2022/01/19 08:13:32;;;;;;;5.63;4.57;;;2.00;99.90;;;2.78;100.00;99114.88;4981520;28;20417;-74
2022/01/19 08:16:47;;;;;;;8.37;5.03;;;2.10;99.90;;;2.81;100.00;99114.66;4981186;28;20434;-78
2022/01/19 08:19:39;;;;;;;6.97;4.70;;;2.10;99.90;;;2.85;100.00;99116.06;4980613;28;20486;-75
2022/01/19 08:22:10;;;;;;;7.43;5.20;;;2.10;99.90;;;2.87;100.00;99103.88;4975530;28;20465;-93
2022/01/19 08:28:55;;;;;;;8.60;5.47;;;2.10;99.90;;;2.94;100.00;99111.06;4981188;28;20425;-75
2022/01/19 09:01:43;;;;;;;10.23;7.03;;;2.50;99.90;;;3.23;100.00;99097.75;4939694;29;20404;-83
2022/01/19 09:04:40;;;;;;;9.03;7.30;;;2.70;99.90;;;3.25;100.00;99090.69;4918305;29;20457;-94
2022/01/19 09:15:46;;;;;;;13.40;8.63;;;2.70;99.90;;;3.30;100.00;99086.81;4909575;29;20458;-93
2022/01/19 09:19:07;;;;;;;15.07;8.40;;;2.60;99.90;;;3.22;100.00;99084.00;4881844;29;20456;-78
2022/01/19 09:22:02;;;;;;;14.23;7.90;;;2.50;99.90;;;3.26;100.00;99080.25;4904252;29;20465;-94
2022/01/19 09:24:36;;;;;;;25.10;10.03;;;2.60;99.90;;;3.29;100.00;99074.03;4905160;29;20500;-93
2022/01/19 09:27:14;;;;;;;16.20;9.53;;;2.70;99.90;;;3.28;100.00;99072.38;4907342;29;20545;-94
2022/01/19 09:30:24;;;;;;;21.67;10.30;;;2.70;99.90;;;3.25;100.00;99081.19;4905967;29;20452;-81
2022/01/19 09:40:00;;;;;;;17.47;10.27;;;2.50;99.90;;;3.12;100.00;99080.47;4912699;29;20618;-92
2022/01/19 09:42:30;;;;;;;21.17;11.70;;;2.50;99.90;;;3.12;100.00;99084.81;4928108;29;20942;-93
2022/01/19 09:45:01;;;;;;;20.50;10.83;;;2.50;99.90;;;3.15;100.00;99087.16;4926209;29;21004;-91
2022/01/19 09:47:35;;;;;;;21.40;10.87;;;2.50;99.90;;;3.16;100.00;99074.09;4935884;28;20470;-93
2022/01/19 09:50:13;;;;;;;26.47;10.90;;;2.50;99.90;;;3.18;100.00;99077.41;4943644;28;20480;-95
2022/01/19 09:52:45;;;;;;;21.20;10.90;;;2.50;99.90;;;3.23;100.00;99074.50;4933634;29;20471;-92
2022/01/19 09:55:17;;;;;;;22.60;11.87;;;2.50;99.90;;;3.22;100.00;99073.69;4934192;29;20449;-93
2022/01/19 09:57:47;;;;;;;20.57;11.40;;;2.60;99.90;;;3.21;100.00;99073.78;4930533;29;20471;-93
2022/01/19 10:00:21;;;;;;;26.57;12.40;;;2.60;99.90;;;3.23;100.00;99069.34;4930384;29;21045;-94
2022/01/19 10:03:24;;;;;;;22.20;12.40;;;2.70;99.90;;;3.17;100.00;99080.94;4913790;29;20882;-93
2022/01/19 10:06:03;;;;;;;20.33;11.50;;;2.60;99.90;;;3.16;100.00;99079.28;4928178;29;20469;-92
2022/01/19 10:08:39;;;;;;;21.20;11.47;;;2.60;99.90;;;3.20;100.00;99088.44;4926366;29;20459;-93
2022/01/19 10:17:12;;;;;;;25.80;11.07;;;2.50;99.90;;;3.21;100.00;99074.59;4907981;29;20840;-93
2022/01/19 10:19:45;;;;;;;24.70;13.20;;;2.70;99.90;;;3.17;100.00;99070.59;4926084;29;21027;-90
2022/01/19 10:22:18;;;;;;;29.50;13.83;;;2.60;99.90;;;3.19;100.00;99070.50;4925018;29;20454;-92
2022/01/19 10:24:53;;;;;;;26.70;12.80;;;2.60;99.90;;;3.14;100.00;99070.84;4926247;29;20498;-92
2022/01/19 10:27:40;;;;;;;24.93;13.83;;;2.60;99.90;;;3.11;100.00;99059.91;4926304;29;20495;-88
2022/01/19 10:30:25;;;;;;;24.30;13.33;;;2.50;99.90;;;3.12;100.00;99070.13;4926583;28;20962;-93
2022/01/19 10:33:00;;;;;;;26.80;12.50;;;2.50;99.90;;;3.11;100.00;99065.91;4930318;29;20990;-92
2022/01/19 10:35:39;;;;;;;27.93;14.70;;;2.50;99.90;;;3.16;100.00;99057.81;4933498;29;20468;-93
2022/01/19 10:38:16;;;;;;;22.43;12.50;;;2.60;99.90;;;3.12;100.00;99052.06;4932769;29;20467;-95
2022/01/19 10:41:08;;;;;;;24.07;13.07;;;2.50;99.90;;;2.99;100.00;99052.13;4936332;29;20594;-93
2022/01/19 10:43:41;;;;;;;24.27;13.43;;;2.40;99.90;;;3.02;100.00;99048.47;4934473;29;20513;-93
2022/01/19 10:46:27;;;;;;;27.23;11.33;;;2.40;99.90;;;3.10;100.00;99040.16;4937545;29;20471;-91
2022/01/19 10:49:05;;;;;;;22.30;10.23;;;2.50;99.90;;;2.96;100.00;99031.69;4928502;29;20527;-90
2022/01/19 10:51:37;;;;;;;23.40;13.13;;;2.30;99.90;;;3.00;100.00;99030.53;4930090;29;20452;-92
2022/01/19 10:54:15;;;;;;;25.87;11.27;;;2.50;99.90;;;3.03;100.00;99032.06;4928620;29;20871;-92
2022/01/19 10:56:54;;;;;;;22.60;11.60;;;2.50;99.90;;;3.07;100.00;99027.47;4927197;29;20461;-92
2022/01/19 10:59:30;;;;;;;19.23;9.97;;;2.60;99.90;;;3.01;100.00;99019.28;4932672;29;21192;-91
2022/01/19 11:02:05;;;;;;;21.37;12.37;;;2.60;99.90;;;3.07;100.00;99030.06;4930634;29;20543;-93
2022/01/19 11:04:38;;;;;;;32.90;16.60;;;2.50;99.90;;;3.07;100.00;99023.13;4928995;29;20467;-94
2022/01/19 11:07:11;;;;;;;20.60;10.53;;;2.60;99.90;;;3.02;100.00;99030.41;4933470;29;20990;-92
2022/01/19 11:09:45;;;;;;;15.63;8.90;;;2.50;99.90;;;3.00;100.00;99032.28;4935952;29;20982;-92
2022/01/19 11:12:21;;;;;;;19.27;9.40;;;2.50;99.90;;;2.98;100.00;99026.44;4927176;29;20459;-88
2022/01/19 11:14:51;;;;;;;15.47;9.00;;;2.50;99.90;;;3.04;100.00;99013.03;4927706;29;20809;-88
2022/01/19 11:17:37;;;;;;;11.93;7.40;;;2.60;99.90;;;3.09;100.00;99010.91;4929020;29;20467;-91
2022/01/19 11:20:13;;;;;;;15.37;9.27;;;2.60;99.90;;;3.05;100.00;99009.53;4929806;29;21164;-92
2022/01/19 11:23:01;;;;;;;15.23;8.33;;;2.60;99.90;;;3.07;100.00;99009.41;4934187;29;20462;-93
2022/01/19 11:25:49;;;;;;;12.30;7.93;;;2.60;99.90;;;3.08;100.00;99001.53;4933174;29;20940;-92
2022/01/19 11:28:35;;;;;;;18.77;7.73;;;2.60;99.90;;;3.11;100.00;98998.72;4928390;29;20970;-93
2022/01/19 11:31:09;;;;;;;16.40;7.90;;;2.60;99.90;;;3.19;100.00;98985.22;4929438;29;21004;-93
2022/01/19 11:33:47;;;;;;;16.70;8.83;;;2.70;99.90;;;3.18;100.00;98974.06;4930921;29;20474;-92
2022/01/19 11:36:24;;;;;;;12.50;8.67;;;2.70;99.90;;;3.22;100.00;98975.47;4927756;29;20451;-92
2022/01/19 11:39:07;;;;;;;13.00;7.87;;;2.80;99.90;;;3.17;100.00;98972.41;4933980;29;20883;-92
2022/01/19 11:41:48;;;;;;;12.20;7.20;;;2.70;99.90;;;3.17;100.00;98962.06;4928182;29;20607;-92
2022/01/19 11:44:38;;;;;;;11.97;7.07;;;2.70;99.90;;;3.17;100.00;98951.75;4927489;29;20497;-91
2022/01/19 11:47:23;;;;;;;10.70;6.60;;;2.70;99.90;;;3.17;100.00;98940.56;4915715;29;20462;-93
2022/01/19 11:49:57;;;;;;;10.53;6.13;;;2.70;99.90;;;3.16;100.00;98944.91;4930211;28;20549;-91
2022/01/19 11:53:05;;;;;;;9.27;6.10;;;2.60;99.90;;;3.19;100.00;98939.53;4929043;29;20542;-93
2022/01/19 11:55:35;;;;;;;7.57;5.57;;;2.60;99.90;;;3.18;100.00;98937.06;4925025;29;21027;-92
2022/01/19 11:58:24;;;;;;;9.10;6.10;;;2.70;99.90;;;3.13;100.00;98929.66;4928818;29;21300;-91
2022/01/19 12:00:58;;;;;;;11.17;6.70;;;2.60;99.90;;;3.17;100.00;98919.91;4930329;29;20575;-90
2022/01/19 12:03:31;;;;;;;9.73;5.37;;;2.60;99.90;;;3.19;100.00;98929.22;4926184;29;20492;-90
2022/01/19 12:06:34;;;;;;;11.03;5.97;;;2.70;99.90;;;3.19;100.00;98918.88;4928095;29;20542;-93
2022/01/19 12:09:09;;;;;;;10.43;6.23;;;2.60;99.90;;;3.17;100.00;98918.16;4927351;29;20550;-92
2022/01/19 12:11:43;;;;;;;8.00;5.60;;;2.70;99.90;;;3.19;100.00;98913.69;4927711;29;20513;-93
2022/01/19 12:14:18;;;;;;;10.13;6.40;;;2.70;99.90;;;3.18;100.00;98912.03;4929989;29;20546;-94
2022/01/19 12:17:02;;;;;;;9.53;5.70;;;2.70;99.90;;;3.17;100.00;98900.06;4915273;29;20467;-91
2022/01/19 12:19:40;;;;;;;8.50;5.70;;;2.70;99.90;;;3.22;100.00;98900.53;4928470;29;20508;-90
2022/01/19 12:22:24;;;;;;;12.23;6.37;;;2.70;99.90;;;3.10;100.00;98906.66;4912066;29;20507;-92
2022/01/19 12:25:00;;;;;;;11.43;6.60;;;2.60;99.90;;;3.12;100.00;98906.53;4927787;29;20458;-92
2022/01/19 12:27:34;;;;;;;9.83;6.23;;;2.60;99.90;;;3.19;100.00;98902.53;4927840;28;20463;-91
2022/01/19 12:30:11;;;;;;;10.30;5.83;;;2.70;99.90;;;3.20;100.00;98899.00;4928424;29;20548;-93
2022/01/19 12:33:07;;;;;;;10.45;6.18;;;2.70;99.90;;;3.24;100.00;98901.22;4928762;29;21348;-92
2022/01/19 12:35:39;;;;;;;8.97;5.80;;;2.80;99.90;;;3.15;100.00;98898.53;4930814;29;20275;-88
2022/01/19 12:38:23;;;;;;;9.40;6.03;;;2.50;99.90;;;3.26;100.00;98883.84;4929047;29;20469;-91
2022/01/19 12:41:00;;;;;;;8.43;4.93;;;2.80;99.90;;;3.19;100.00;98880.09;4928990;29;20490;-90
2022/01/19 12:43:37;;;;;;;9.00;5.20;;;2.70;99.90;;;3.25;100.00;98883.97;4929902;29;21067;-91
2022/01/19 12:46:10;;;;;;;9.10;5.23;;;2.80;99.90;;;3.23;100.00;98878.09;4928231;29;20492;-90
2022/01/19 12:48:48;;;;;;;5.37;3.97;;;2.70;99.90;;;3.23;100.00;98876.31;4929633;29;20451;-90
2022/01/19 12:51:42;;;;;;;9.70;5.40;;;2.70;99.90;;;3.27;100.00;98880.31;4926957;29;20476;-90
2022/01/19 12:54:16;;;;;;;7.50;4.83;;;2.80;99.90;;;3.21;100.00;98874.81;4928046;29;20480;-90
2022/01/19 12:56:58;;;;;;;11.20;5.00;;;2.70;99.90;;;3.29;100.00;98877.63;4928358;29;20454;-89
2022/01/19 12:59:29;;;;;;;7.68;5.20;;;2.70;99.90;;;3.34;100.00;98872.91;4924640;29;20469;-90
2022/01/19 13:01:59;;;;;;;5.23;4.20;;;2.80;99.90;;;3.37;100.00;98864.88;4924821;29;20267;-90
2022/01/19 13:04:34;;;;;;;4.40;3.97;;;2.80;99.90;;;3.37;100.00;98865.72;4921261;29;20465;-91
2022/01/19 13:07:19;;;;;;;7.13;4.20;;;2.70;99.90;;;3.41;100.00;98861.94;4926855;29;20581;-91
2022/01/19 13:10:13;;;;;;;5.60;3.70;;;2.90;99.90;;;3.40;100.00;98849.16;4926599;29;20822;-92
2022/01/19 13:12:53;;;;;;;7.50;4.03;;;2.90;99.90;;;3.42;100.00;98848.09;4927750;29;20878;-87
2022/01/19 13:15:26;;;;;;;7.40;4.97;;;2.90;99.90;;;3.40;100.00;98841.41;4925915;29;20539;-91
2022/01/19 13:17:57;;;;;;;8.30;3.67;;;2.90;99.90;;;3.41;100.00;98840.44;4927195;28;20472;-90
2022/01/19 13:20:31;;;;;;;8.40;4.60;;;2.80;99.90;;;3.43;100.00;98844.56;4924559;29;20901;-93
2022/01/19 13:23:04;;;;;;;10.37;4.90;;;2.90;99.90;;;3.41;100.00;98841.28;4924314;29;20496;-94
2022/01/19 13:25:35;;;;;;;7.33;3.60;;;2.80;99.90;;;3.42;100.00;98848.09;4921604;28;20507;-91
2022/01/19 13:28:05;;;;;;;8.30;3.73;;;2.90;99.90;;;3.44;100.00;98841.03;4926073;29;20465;-90
2022/01/19 13:30:36;;;;;;;8.47;4.90;;;2.90;99.90;;;3.43;100.00;98839.41;4924765;28;20464;-90
2022/01/19 13:33:12;;;;;;;6.77;3.83;;;2.90;99.90;;;3.49;100.00;98838.91;4928536;29;20571;-90
2022/01/19 13:35:59;;;;;;;7.10;4.60;;;2.90;99.90;;;3.54;100.00;98831.59;4924725;29;20452;-91
2022/01/19 13:38:29;;;;;;;6.30;4.33;;;3.00;99.90;;;3.49;100.00;98838.91;4926225;28;20464;-91
2022/01/19 13:41:07;;;;;;;6.57;4.10;;;2.90;99.90;;;3.51;100.00;98834.41;4925030;29;20553;-90
2022/01/19 13:43:40;;;;;;;7.23;4.20;;;3.10;99.90;;;3.50;100.00;98829.38;4924774;29;20920;-89
2022/01/19 13:46:18;;;;;;;6.10;4.20;;;3.00;99.90;;;3.46;100.00;98831.41;4924538;29;20473;-90
2022/01/19 13:48:57;;;;;;;6.50;3.90;;;2.90;99.90;;;3.55;100.00;98824.66;4924753;29;21205;-91
2022/01/19 13:51:30;;;;;;;5.63;3.90;;;3.10;99.90;;;3.51;100.00;98837.00;4924877;29;20491;-90
2022/01/19 13:54:05;;;;;;;6.07;4.30;;;3.00;99.90;;;3.52;100.00;98828.31;4919209;29;20471;-91
2022/01/19 13:56:37;;;;;;;7.80;4.40;;;3.00;99.90;;;3.54;100.00;98831.59;4923601;29;20888;-92
2022/01/19 13:59:10;;;;;;;5.80;4.80;;;3.10;99.90;;;3.52;100.00;98822.31;4924653;29;20463;-91
2022/01/19 14:01:49;;;;;;;7.47;4.80;;;3.00;99.90;;;3.54;100.00;98828.19;4907670;29;21077;-91
2022/01/19 14:04:19;;;;;;;5.60;3.70;;;3.00;99.90;;;3.58;100.00;98819.22;4925681;29;20535;-90
2022/01/19 14:06:54;;;;;;;5.13;3.33;;;3.10;99.90;;;3.59;100.00;98818.28;4927100;29;20493;-91
2022/01/19 14:09:27;;;;;;;8.53;4.20;;;3.10;99.90;;;3.59;100.00;98815.72;4926696;29;20471;-90
2022/01/19 14:12:02;;;;;;;5.40;3.50;;;3.10;99.90;;;3.63;100.00;98818.88;4928244;29;20462;-91
2022/01/19 14:14:36;;;;;;;4.40;3.30;;;3.20;99.90;;;3.62;100.00;98812.03;4912905;29;20477;-91
2022/01/19 14:17:09;;;;;;;5.87;3.60;;;3.10;99.90;;;3.63;100.00;98811.94;4930000;29;20456;-91
2022/01/19 14:19:44;;;;;;;5.47;3.33;;;3.10;99.90;;;3.63;100.00;98814.53;4913143;29;21127;-90
2022/01/19 14:22:19;;;;;;;3.20;2.90;;;3.20;99.90;;;3.63;100.00;98813.69;4929903;28;20608;-90
2022/01/19 14:24:58;;;;;;;4.30;2.77;;;3.20;99.90;;;3.60;100.00;98808.78;4927838;29;20906;-89
2022/01/19 14:27:53;;;;;;;5.20;3.43;;;3.10;99.90;;;3.64;100.00;98810.19;4928099;28;20533;-89
2022/01/19 14:30:28;;;;;;;4.60;3.10;;;3.20;99.90;;;3.68;100.00;98806.41;4929565;29;20879;-89
2022/01/19 14:33:09;;;;;;;5.20;3.53;;;3.20;99.90;;;3.68;100.00;98803.81;4927068;28;20524;-88
2022/01/19 14:35:51;;;;;;;5.17;3.30;;;3.10;99.90;;;3.58;100.00;98808.06;4911500;29;20547;-89
2022/01/19 14:38:32;;;;;;;7.03;4.20;;;3.10;99.90;;;3.61;100.00;98810.44;4929697;29;20476;-90
2022/01/19 14:41:11;;;;;;;7.30;4.10;;;3.10;99.90;;;3.62;100.00;98809.47;4926376;29;20536;-89
2022/01/19 14:43:47;;;;;;;6.63;3.80;;;3.20;99.90;;;3.59;100.00;98807.13;4924462;29;20593;-90
2022/01/19 14:46:42;;;;;;;6.67;3.77;;;3.20;99.90;;;3.62;100.00;98801.72;4927696;29;20989;-90
2022/01/19 14:49:13;;;;;;;5.00;3.73;;;3.20;99.90;;;3.58;100.00;98800.31;4927020;29;20461;-89
2022/01/19 14:51:44;;;;;;;5.43;4.10;;;3.20;99.90;;;3.59;100.00;98792.44;4926326;29;20497;-89
2022/01/19 14:54:16;;;;;;;8.83;4.67;;;3.20;99.90;;;3.57;100.00;98785.75;4927943;29;20451;-90
2022/01/19 14:56:46;;;;;;;6.57;4.17;;;3.20;99.90;;;3.46;100.00;98792.63;4927111;29;20493;-89
2022/01/19 14:59:20;;;;;;;6.83;3.67;;;3.00;99.90;;;3.49;100.00;98788.97;4928470;29;20467;-89
2022/01/19 15:01:55;;;;;;;8.17;4.30;;;3.10;99.90;;;3.51;100.00;98790.47;4927402;29;20458;-89
2022/01/19 15:04:26;;;;;;;5.10;3.43;;;3.00;99.90;;;3.55;100.00;98781.53;4927742;29;20475;-90
2022/01/19 15:06:59;;;;;;;6.60;3.97;;;3.10;99.90;;;3.54;100.00;98776.47;4928779;29;20946;-90
2022/01/19 15:09:30;;;;;;;4.40;3.37;;;3.10;99.90;;;3.53;100.00;98767.09;4926874;29;20450;-89
2022/01/19 15:12:00;;;;;;;6.63;3.90;;;3.10;99.90;;;3.58;100.00;98772.69;4929552;29;20468;-89
2022/01/19 15:14:30;;;;;;;7.37;3.60;;;3.10;99.90;;;3.56;100.00;98759.09;4909017;29;20485;-90
2022/01/19 15:16:59;;;;;;;5.87;3.43;;;3.10;99.90;;;3.49;100.00;98765.69;4925646;29;20457;-89
2022/01/19 15:19:29;;;;;;;9.17;3.30;;;2.90;99.90;;;3.55;100.00;98770.38;4910837;29;20563;-90
2022/01/19 15:21:59;;;;;;;4.97;2.93;;;3.00;99.90;;;3.58;100.00;98764.94;4930513;29;20977;-90
2022/01/19 15:24:30;;;;;;;4.33;3.30;;;3.10;99.90;;;3.59;100.00;98771.75;4927962;29;20448;-90
2022/01/19 15:27:01;;;;;;;5.10;2.73;;;3.10;99.90;;;3.57;100.00;98762.50;4927534;29;20460;-90
2022/01/19 15:29:32;;;;;;;4.03;3.10;;;3.00;99.90;;;3.58;100.00;98775.28;4926618;29;21050;-89